createdAt,value
2022-11-10T00:00:49.486Z,0.62
2022-11-10T00:03:52.829Z,0.59
2022-11-10T00:07:14.428Z,0.55
2022-11-10T00:10:31.572Z,0.53
2022-11-10T00:13:35.828Z,0.52
2022-11-10T00:16:56.134Z,0.50
2022-11-10T00:19:58.252Z,0.48
2022-11-10T00:22:59.941Z,0.44
2022-11-10T00:26:01.942Z,0.40
2022-11-10T00:29:03.752Z,0.36
2022-11-10T00:32:05.426Z,0.29
2022-11-10T00:35:07.878Z,0.27
2022-11-10T00:38:10.104Z,0.21
2022-11-10T00:41:12.161Z,0.15
2022-11-10T00:44:13.882Z,0.15
2022-11-10T00:47:15.488Z,0.11
2022-11-10T00:50:17.450Z,0.06
2022-11-10T00:53:19.563Z,0.02
2022-11-10T00:56:22.888Z,-0.00
2022-11-10T00:59:24.553Z,-0.01
2022-11-10T01:02:26.283Z,-0.05
2022-11-10T01:05:28.345Z,-0.11
2022-11-10T01:08:29.903Z,-0.18
2022-11-10T01:11:31.552Z,-0.23
2022-11-10T01:14:33.205Z,-0.22
2022-11-10T01:17:35.020Z,-0.18
2022-11-10T01:20:36.684Z,-0.12
2022-11-10T01:23:38.584Z,-0.24
2022-11-10T01:26:40.254Z,-0.49
2022-11-10T01:29:41.950Z,-0.62
2022-11-10T01:32:43.855Z,-0.59
2022-11-10T01:35:46.068Z,-0.54
2022-11-10T01:38:47.774Z,-0.59
2022-11-10T01:41:49.414Z,-0.65
2022-11-10T01:45:22.661Z,-0.61
2022-11-10T01:48:30.493Z,-0.68
2022-11-10T01:51:35.546Z,-0.87
2022-11-10T01:54:41.334Z,-0.86
2022-11-10T01:57:43.671Z,-0.76
2022-11-10T02:00:45.464Z,-0.84
2022-11-10T02:03:54.539Z,-0.89
2022-11-10T02:06:56.469Z,-0.79
2022-11-10T02:09:58.097Z,-0.73
2022-11-10T02:12:59.820Z,-0.78
2022-11-10T02:16:01.510Z,-0.65
2022-11-10T02:19:17.999Z,-0.44
2022-11-10T02:22:19.675Z,-0.48
2022-11-10T02:25:22.460Z,-0.50
2022-11-10T02:28:25.634Z,-0.43
2022-11-10T02:31:27.297Z,-0.30
2022-11-10T02:34:28.982Z,-0.28
2022-11-10T02:37:30.818Z,-0.33
2022-11-10T02:40:32.332Z,-0.32
2022-11-10T02:43:34.604Z,-0.33
2022-11-10T02:46:37.752Z,-0.39
2022-11-10T02:49:39.400Z,-0.36
2022-11-10T02:52:41.067Z,-0.19
2022-11-10T02:55:42.754Z,-0.10
2022-11-10T02:58:44.420Z,-0.16
2022-11-10T03:01:46.141Z,-0.21
2022-11-10T03:04:47.797Z,-0.17
2022-11-10T03:07:54.181Z,-0.20
2022-11-10T03:10:56.687Z,-0.24
2022-11-10T03:14:02.025Z,-0.28
2022-11-10T03:17:04.642Z,-0.25
2022-11-10T03:20:06.619Z,-0.31
2022-11-10T03:23:08.561Z,-0.35
2022-11-10T03:26:10.256Z,-0.33
2022-11-10T03:29:11.931Z,-0.33
2022-11-10T03:32:13.677Z,-0.44
2022-11-10T03:35:15.386Z,-0.51
2022-11-10T03:38:17.439Z,-0.52
2022-11-10T03:41:20.462Z,-0.53
2022-11-10T03:44:22.705Z,-0.50
2022-11-10T03:47:24.657Z,-0.47
2022-11-10T03:50:26.237Z,-0.32
2022-11-10T03:53:27.864Z,-0.18
2022-11-10T03:56:29.634Z,-0.05
2022-11-10T03:59:31.490Z,0.00
2022-11-10T04:02:33.255Z,0.16
2022-11-10T04:05:53.637Z,0.23
2022-11-10T04:09:01.014Z,0.48
2022-11-10T04:12:24.888Z,0.94
2022-11-10T04:15:42.127Z,1.27
2022-11-10T04:18:43.737Z,1.46
2022-11-10T04:21:45.513Z,1.75
2022-11-10T04:24:47.116Z,1.97
2022-11-10T04:27:48.960Z,2.10
2022-11-10T04:30:50.551Z,2.17
2022-11-10T04:33:53.001Z,2.33
2022-11-10T04:36:54.700Z,2.44
2022-11-10T04:39:56.234Z,2.53
2022-11-10T04:42:57.945Z,2.71
2022-11-10T04:45:59.660Z,3.02
2022-11-10T04:49:01.669Z,3.14
2022-11-10T04:52:03.514Z,3.27
2022-11-10T04:55:05.743Z,3.44
2022-11-10T04:58:07.344Z,3.63
2022-11-10T05:01:20.624Z,3.82
2022-11-10T05:04:22.388Z,4.06
2022-11-10T05:07:23.895Z,4.24
2022-11-10T05:10:26.248Z,4.40
2022-11-10T05:13:28.161Z,4.50
2022-11-10T05:16:29.805Z,4.61
2022-11-10T05:19:31.318Z,4.69
2022-11-10T05:22:32.995Z,4.81
2022-11-10T05:25:35.625Z,4.90
2022-11-10T05:28:38.452Z,4.94
2022-11-10T05:31:40.071Z,4.95
2022-11-10T05:34:41.849Z,4.94
2022-11-10T05:37:43.575Z,4.93
2022-11-10T05:40:45.260Z,4.95
2022-11-10T05:43:47.456Z,4.96
2022-11-10T05:46:49.083Z,4.97
2022-11-10T05:49:50.740Z,5.00
2022-11-10T05:52:53.851Z,5.06
2022-11-10T05:55:55.652Z,5.01
2022-11-10T05:58:57.254Z,5.00
2022-11-10T06:01:58.837Z,4.98
2022-11-10T06:05:00.553Z,4.96
2022-11-10T06:08:02.976Z,4.94
2022-11-10T06:11:04.803Z,4.94
2022-11-10T06:14:06.374Z,5.01
2022-11-10T06:17:08.056Z,5.05
2022-11-10T06:20:09.916Z,5.08
2022-11-10T06:23:12.893Z,5.11
2022-11-10T06:26:14.549Z,5.17
2022-11-10T06:29:16.120Z,5.24
2022-11-10T06:32:18.321Z,5.35
2022-11-10T06:35:20.622Z,5.48
2022-11-10T06:38:22.271Z,5.68
2022-11-10T06:41:25.423Z,5.84
2022-11-10T06:44:27.357Z,6.00
2022-11-10T06:47:29.841Z,6.16
2022-11-10T06:50:31.717Z,6.38
2022-11-10T06:53:33.609Z,6.50
2022-11-10T06:56:35.759Z,6.62
2022-11-10T06:59:37.476Z,6.72
2022-11-10T07:02:38.966Z,6.79
2022-11-10T07:05:40.569Z,6.83
2022-11-10T07:08:42.241Z,6.85
2022-11-10T07:11:43.975Z,6.89
2022-11-10T07:14:45.577Z,6.93
2022-11-10T07:17:47.192Z,6.97
2022-11-10T07:20:48.880Z,7.02
2022-11-10T07:23:50.540Z,7.07
2022-11-10T07:26:52.257Z,7.11
2022-11-10T07:29:53.917Z,7.13
2022-11-10T07:33:12.476Z,7.15
2022-11-10T07:36:14.402Z,7.17
2022-11-10T07:39:16.224Z,7.19
2022-11-10T07:42:17.904Z,7.20
2022-11-10T07:45:19.435Z,7.22
2022-11-10T07:48:21.205Z,7.22
2022-11-10T07:51:22.940Z,7.25
2022-11-10T07:54:24.527Z,7.27
2022-11-10T07:57:26.093Z,7.30
2022-11-10T08:00:28.458Z,7.34
2022-11-10T08:03:30.266Z,7.39
2022-11-10T08:06:36.131Z,7.40
2022-11-10T08:09:38.235Z,7.44
2022-11-10T08:12:39.863Z,7.45
2022-11-10T08:15:42.119Z,7.43
2022-11-10T08:18:43.765Z,7.42
2022-11-10T08:21:45.518Z,7.41
2022-11-10T08:24:47.278Z,7.42
2022-11-10T08:27:48.975Z,7.44
2022-11-10T08:30:50.655Z,7.47
2022-11-10T08:33:52.576Z,7.50
2022-11-10T08:36:54.278Z,7.52
2022-11-10T08:39:56.024Z,7.55
2022-11-10T08:42:59.809Z,7.59
2022-11-10T08:46:03.971Z,7.63
2022-11-10T08:49:05.682Z,7.67
2022-11-10T08:52:07.448Z,7.70
2022-11-10T08:55:09.479Z,7.74
2022-11-10T08:58:16.640Z,7.80
2022-11-10T09:01:18.222Z,7.85
2022-11-10T09:04:19.808Z,7.91
2022-11-10T09:07:22.407Z,7.96
2022-11-10T09:10:24.185Z,8.00
2022-11-10T09:13:29.779Z,8.03
2022-11-10T09:16:32.314Z,8.05
2022-11-10T09:19:34.169Z,8.07
2022-11-10T09:22:36.858Z,8.11
2022-11-10T09:25:39.225Z,8.16
2022-11-10T09:28:40.914Z,8.21
2022-11-10T09:31:44.915Z,8.24
2022-11-10T09:34:48.947Z,8.27
2022-11-10T09:37:54.600Z,8.32
2022-11-10T09:41:03.026Z,8.34
2022-11-10T09:44:16.718Z,8.35
2022-11-10T09:47:50.802Z,8.33
2022-11-10T09:51:06.080Z,8.37
2022-11-10T09:54:16.942Z,8.43
2022-11-10T09:57:21.993Z,8.49
2022-11-10T10:00:23.646Z,8.53
2022-11-10T10:03:28.594Z,8.56
2022-11-10T10:06:43.665Z,8.59
2022-11-10T10:09:52.283Z,8.64
2022-11-10T10:13:31.353Z,8.69
2022-11-10T10:16:59.609Z,8.79
2022-11-10T10:20:04.165Z,8.88
2022-11-10T10:24:02.163Z,8.96
2022-11-10T10:26:54.704Z,9.10
2022-11-10T10:29:56.454Z,9.18
2022-11-10T10:33:14.489Z,9.26
2022-11-10T10:36:28.290Z,9.32
2022-11-10T10:39:37.073Z,9.34
2022-11-10T10:42:38.760Z,9.36
2022-11-10T10:45:42.429Z,9.33
2022-11-10T10:48:44.294Z,9.30
2022-11-10T10:51:46.177Z,9.27
2022-11-10T10:54:47.784Z,9.24
2022-11-10T10:57:58.331Z,9.24
2022-11-10T11:01:15.633Z,9.28
2022-11-10T11:04:30.110Z,9.33
2022-11-10T11:07:31.708Z,9.38
2022-11-10T11:10:35.501Z,9.42
2022-11-10T11:13:37.778Z,9.47
2022-11-10T11:16:56.351Z,9.50
2022-11-10T11:20:00.008Z,9.53
2022-11-10T11:23:34.438Z,9.56
2022-11-10T11:26:50.509Z,9.59
2022-11-10T11:30:15.809Z,9.60
2022-11-10T11:33:21.444Z,9.61
2022-11-10T11:36:34.051Z,9.60
2022-11-10T11:39:52.109Z,9.61
2022-11-10T11:43:15.724Z,9.64
2022-11-10T11:46:35.012Z,9.68
2022-11-10T11:49:59.111Z,9.72
2022-11-10T11:53:18.763Z,9.78
2022-11-10T11:56:28.761Z,9.85
2022-11-10T11:59:36.439Z,9.87
2022-11-10T12:02:52.430Z,9.88
2022-11-10T12:06:12.860Z,9.89
2022-11-10T12:09:30.173Z,9.88
2022-11-10T12:12:53.507Z,9.84
2022-11-10T12:16:01.520Z,9.80
2022-11-10T12:19:33.397Z,9.78
2022-11-10T12:22:48.324Z,9.78
2022-11-10T12:26:12.939Z,9.79
2022-11-10T12:29:41.966Z,9.80
2022-11-10T12:32:55.883Z,9.82
2022-11-10T12:35:58.579Z,9.82
2022-11-10T12:39:11.194Z,9.83
2022-11-10T12:42:18.163Z,9.87
2022-11-10T12:45:34.178Z,9.90
2022-11-10T12:48:46.977Z,9.91
2022-11-10T12:52:12.494Z,9.92
2022-11-10T12:55:14.950Z,9.94
2022-11-10T12:58:18.243Z,9.97
2022-11-10T13:01:20.413Z,9.99
2022-11-10T13:04:22.294Z,10.03
2022-11-10T13:07:24.442Z,10.05
2022-11-10T13:10:28.036Z,10.09
2022-11-10T13:13:31.001Z,10.12
2022-11-10T13:16:41.583Z,10.15
2022-11-10T13:19:43.524Z,10.19
2022-11-10T13:22:45.252Z,10.21
2022-11-10T13:25:54.407Z,10.22
2022-11-10T13:28:58.487Z,10.23
2022-11-10T13:32:30.660Z,10.23
2022-11-10T13:35:38.410Z,10.23
2022-11-10T13:38:44.450Z,10.21
2022-11-10T13:42:01.100Z,10.18
2022-11-10T13:45:27.862Z,10.15
2022-11-10T13:48:32.977Z,10.11
2022-11-10T13:51:44.697Z,10.08
2022-11-10T13:55:03.610Z,10.07
2022-11-10T13:58:09.410Z,10.07
2022-11-10T14:01:17.231Z,10.07
2022-11-10T14:04:40.627Z,10.07
2022-11-10T14:07:45.090Z,10.07
2022-11-10T14:10:52.566Z,10.09
2022-11-10T14:14:01.137Z,10.12
2022-11-10T14:17:03.459Z,10.14
2022-11-10T14:20:21.671Z,10.13
2022-11-10T14:23:29.667Z,10.09
2022-11-10T14:26:42.630Z,10.05
2022-11-10T14:29:44.714Z,10.02
2022-11-10T14:33:05.045Z,9.96
2022-11-10T14:36:10.182Z,9.90
2022-11-10T14:39:14.903Z,9.84
2022-11-10T14:42:22.697Z,9.76
2022-11-10T14:45:28.429Z,9.67
2022-11-10T14:48:38.046Z,9.56
2022-11-10T14:51:40.296Z,9.47
2022-11-10T14:54:44.836Z,9.34
2022-11-10T14:57:49.664Z,9.24
2022-11-10T15:00:51.802Z,9.18
2022-11-10T15:03:53.700Z,9.10
2022-11-10T15:06:56.828Z,9.02
2022-11-10T15:10:15.975Z,8.97
2022-11-10T15:13:26.950Z,8.92
2022-11-10T15:16:30.726Z,8.87
2022-11-10T15:19:37.064Z,8.82
2022-11-10T15:22:38.688Z,8.76
2022-11-10T15:25:41.175Z,8.73
2022-11-10T15:28:43.375Z,8.70
2022-11-10T15:31:45.520Z,8.67
2022-11-10T15:34:48.187Z,8.66
2022-11-10T15:38:19.623Z,8.66
2022-11-10T15:41:27.160Z,8.67
2022-11-10T15:44:29.203Z,8.66
2022-11-10T15:47:31.064Z,8.65
2022-11-10T15:50:32.727Z,8.66
2022-11-10T15:53:40.501Z,8.66
2022-11-10T15:56:42.380Z,8.67
2022-11-10T15:59:44.253Z,8.67
2022-11-10T16:02:46.052Z,8.67
2022-11-10T16:05:48.597Z,8.67
2022-11-10T16:08:50.213Z,8.64
2022-11-10T16:11:51.971Z,8.64
2022-11-10T16:14:53.858Z,8.63
2022-11-10T16:17:57.386Z,8.63
2022-11-10T16:20:59.061Z,8.64
2022-11-10T16:24:00.671Z,8.66
2022-11-10T16:27:05.714Z,8.69
2022-11-10T16:30:13.606Z,8.71
2022-11-10T16:33:16.998Z,8.71
2022-11-10T16:36:29.251Z,8.74
2022-11-10T16:39:31.872Z,8.76
2022-11-10T16:42:33.494Z,8.78
2022-11-10T16:45:35.269Z,8.79
2022-11-10T16:48:37.788Z,8.81
2022-11-10T16:51:47.275Z,8.82
2022-11-10T16:54:50.549Z,8.85
2022-11-10T16:57:52.185Z,8.90
2022-11-10T17:00:57.462Z,8.93
2022-11-10T17:04:01.621Z,8.95
2022-11-10T17:07:03.614Z,8.95
2022-11-10T17:10:06.497Z,8.92
2022-11-10T17:13:11.322Z,8.86
2022-11-10T17:16:26.377Z,8.79
2022-11-10T17:19:28.087Z,8.76
2022-11-10T17:22:32.119Z,8.78
2022-11-10T17:25:35.518Z,8.82
2022-11-10T17:28:37.324Z,8.86
2022-11-10T17:31:38.945Z,8.88
2022-11-10T17:34:40.496Z,8.88
2022-11-10T17:37:43.687Z,8.85
2022-11-10T17:40:45.463Z,8.85
2022-11-10T17:43:47.664Z,8.84
2022-11-10T17:46:49.245Z,8.83
2022-11-10T17:49:50.906Z,8.82
2022-11-10T17:52:52.801Z,8.82
2022-11-10T17:55:54.415Z,8.81
2022-11-10T17:58:56.062Z,8.81
2022-11-10T18:01:58.321Z,8.81
2022-11-10T18:05:00.231Z,8.79
2022-11-10T18:08:02.083Z,8.77
2022-11-10T18:11:03.780Z,8.73
2022-11-10T18:14:05.551Z,8.70
2022-11-10T18:17:07.193Z,8.67
2022-11-10T18:20:10.204Z,8.65
2022-11-10T18:23:13.014Z,8.60
2022-11-10T18:26:14.684Z,8.58
2022-11-10T18:29:16.295Z,8.54
2022-11-10T18:32:17.967Z,8.52
2022-11-10T18:35:19.777Z,8.48
2022-11-10T18:38:21.481Z,8.44
2022-11-10T18:41:41.822Z,8.44
2022-11-10T18:44:43.644Z,8.43
2022-11-10T18:47:45.416Z,8.40
2022-11-10T18:50:47.195Z,8.42
2022-11-10T18:53:48.760Z,8.45
2022-11-10T18:56:50.970Z,8.51
2022-11-10T18:59:52.654Z,8.56
2022-11-10T19:02:55.404Z,8.60
2022-11-10T19:05:58.925Z,8.63
2022-11-10T19:09:00.716Z,8.65
2022-11-10T19:12:02.349Z,8.60
2022-11-10T19:15:04.634Z,8.50
2022-11-10T19:18:06.447Z,8.46
2022-11-10T19:21:20.330Z,8.45
2022-11-10T19:24:27.775Z,8.45
2022-11-10T19:27:30.578Z,8.43
2022-11-10T19:30:32.235Z,8.42
2022-11-10T19:33:36.125Z,8.39
2022-11-10T19:36:38.152Z,8.35
2022-11-10T19:39:40.149Z,8.32
2022-11-10T19:42:41.857Z,8.27
2022-11-10T19:45:43.515Z,8.20
2022-11-10T19:48:45.333Z,8.12
2022-11-10T19:51:49.304Z,8.03
2022-11-10T19:54:50.869Z,8.00
2022-11-10T19:57:52.571Z,7.94
2022-11-10T20:00:54.981Z,7.91
2022-11-10T20:03:56.633Z,7.87
2022-11-10T20:07:27.618Z,7.82
2022-11-10T20:10:30.348Z,7.74
2022-11-10T20:13:32.857Z,7.70
2022-11-10T20:16:34.571Z,7.62
2022-11-10T20:19:40.941Z,7.54
2022-11-10T20:22:43.242Z,7.46
2022-11-10T20:25:45.021Z,7.38
2022-11-10T20:28:47.441Z,7.31
2022-11-10T20:31:49.088Z,7.24
2022-11-10T20:34:50.923Z,7.21
2022-11-10T20:37:52.701Z,7.16
2022-11-10T20:41:02.537Z,7.12
2022-11-10T20:44:04.229Z,7.03
2022-11-10T20:47:05.970Z,6.97
2022-11-10T20:50:13.138Z,6.91
2022-11-10T20:53:16.643Z,6.87
2022-11-10T20:56:18.369Z,6.82
2022-11-10T20:59:20.184Z,6.78
2022-11-10T21:02:21.958Z,6.73
2022-11-10T21:05:23.589Z,6.68
2022-11-10T21:08:25.364Z,6.64
2022-11-10T21:11:45.762Z,6.61
2022-11-10T21:14:47.760Z,6.54
2022-11-10T21:17:49.417Z,6.50
2022-11-10T21:20:51.689Z,6.48
2022-11-10T21:23:57.562Z,6.43
2022-11-10T21:26:59.354Z,6.42
2022-11-10T21:30:01.064Z,6.40
2022-11-10T21:33:05.921Z,6.40
2022-11-10T21:36:08.380Z,6.35
2022-11-10T21:39:10.049Z,6.33
2022-11-10T21:42:11.649Z,6.32
2022-11-10T21:45:13.301Z,6.28
2022-11-10T21:48:14.960Z,6.25
2022-11-10T21:51:16.842Z,6.23
2022-11-10T21:54:18.421Z,6.18
2022-11-10T21:57:19.999Z,6.15
2022-11-10T22:00:21.780Z,6.13
2022-11-10T22:03:23.625Z,6.11
2022-11-10T22:06:45.903Z,6.07
2022-11-10T22:10:06.570Z,6.10
2022-11-10T22:13:34.460Z,6.08
2022-11-10T22:17:06.967Z,6.03
2022-11-10T22:20:08.831Z,5.98
2022-11-10T22:23:11.700Z,5.95
2022-11-10T22:26:13.427Z,5.92
2022-11-10T22:29:15.211Z,5.90
2022-11-10T22:32:16.944Z,5.88
2022-11-10T22:35:37.519Z,5.91
2022-11-10T22:38:41.366Z,5.97
2022-11-10T22:42:02.070Z,5.99
2022-11-10T22:45:03.886Z,6.00
2022-11-10T22:48:24.094Z,5.96
2022-11-10T22:51:30.508Z,5.92
2022-11-10T22:54:32.071Z,5.92
2022-11-10T22:57:33.644Z,5.92
2022-11-10T23:00:35.318Z,5.92
2022-11-10T23:03:37.128Z,5.93
2022-11-10T23:06:39.130Z,5.89
2022-11-10T23:09:40.790Z,5.86
2022-11-10T23:12:42.400Z,5.81
2022-11-10T23:15:45.518Z,5.81
2022-11-10T23:18:49.708Z,5.78
2022-11-10T23:21:51.326Z,5.75
2022-11-10T23:24:56.926Z,5.73
2022-11-10T23:27:59.533Z,5.70
2022-11-10T23:31:06.974Z,5.67
2022-11-10T23:34:08.897Z,5.58
2022-11-10T23:37:10.513Z,5.55
2022-11-10T23:40:12.438Z,5.48
2022-11-10T23:43:14.074Z,5.40
2022-11-10T23:46:15.939Z,5.38
2022-11-10T23:49:17.578Z,5.37
2022-11-10T23:52:19.210Z,5.36
2022-11-10T23:55:20.939Z,5.35
2022-11-10T23:58:23.086Z,5.33
